createdAt,value
2022-12-03T00:00:53.562Z,13.03
2022-12-03T00:03:56.236Z,13.50
2022-12-03T00:06:58.490Z,13.60
2022-12-03T00:10:00.580Z,12.00
2022-12-03T00:13:02.600Z,11.87
2022-12-03T00:16:04.940Z,13.17
2022-12-03T00:19:07.982Z,10.43
2022-12-03T00:22:12.635Z,11.67
2022-12-03T00:25:15.448Z,12.03
2022-12-03T00:28:17.527Z,13.50
2022-12-03T00:31:21.665Z,13.43
2022-12-03T00:34:23.821Z,11.20
2022-12-03T00:37:26.275Z,10.20
2022-12-03T00:40:28.473Z,11.80
2022-12-03T00:43:30.473Z,11.40
2022-12-03T00:46:32.648Z,12.83
2022-12-03T00:49:34.740Z,11.93
2022-12-03T00:52:36.872Z,12.77
2022-12-03T00:55:38.957Z,13.07
2022-12-03T00:58:41.064Z,12.23
2022-12-03T01:01:43.155Z,11.87
2022-12-03T01:04:45.395Z,12.27
2022-12-03T01:07:47.902Z,12.07
2022-12-03T01:10:50.093Z,11.83
2022-12-03T01:13:52.087Z,10.57
2022-12-03T01:16:54.157Z,13.07
2022-12-03T01:19:56.295Z,14.63
2022-12-03T01:22:58.325Z,11.17
2022-12-03T01:26:00.354Z,11.60
2022-12-03T01:29:02.447Z,13.13
2022-12-03T01:32:16.919Z,13.90
2022-12-03T01:35:19.041Z,14.07
2022-12-03T01:38:21.243Z,12.70
2022-12-03T01:41:24.773Z,14.37
2022-12-03T01:44:31.993Z,12.17
2022-12-03T01:47:36.468Z,11.97
2022-12-03T01:50:38.985Z,11.67
2022-12-03T01:53:41.918Z,13.53
2022-12-03T01:56:44.637Z,16.10
2022-12-03T01:59:47.779Z,14.50
2022-12-03T02:02:54.167Z,13.73
2022-12-03T02:05:57.134Z,13.10
2022-12-03T02:09:00.392Z,13.63
2022-12-03T02:12:02.388Z,13.40
2022-12-03T02:15:06.528Z,12.17
2022-12-03T02:18:09.710Z,10.73
2022-12-03T02:21:31.858Z,13.87
2022-12-03T02:24:52.988Z,12.63
2022-12-03T02:27:56.266Z,13.63
2022-12-03T02:30:58.415Z,13.23
2022-12-03T02:34:04.832Z,14.17
2022-12-03T02:37:10.917Z,12.80
2022-12-03T02:40:17.859Z,12.50
2022-12-03T02:43:20.849Z,13.03
2022-12-03T02:46:23.088Z,12.07
2022-12-03T02:49:25.352Z,14.30
2022-12-03T02:52:27.594Z,14.97
2022-12-03T02:55:36.579Z,12.13
2022-12-03T02:58:40.586Z,12.43
2022-12-03T03:01:42.865Z,12.53
2022-12-03T03:04:45.420Z,10.37
2022-12-03T03:07:48.574Z,12.00
2022-12-03T03:10:50.877Z,9.87
2022-12-03T03:13:52.896Z,12.87
2022-12-03T03:16:56.416Z,11.40
2022-12-03T03:19:58.890Z,13.07
2022-12-03T03:23:23.546Z,12.00
2022-12-03T03:26:26.099Z,13.40
2022-12-03T03:29:28.527Z,13.57
2022-12-03T03:32:31.164Z,10.80
2022-12-03T03:35:33.300Z,10.93
2022-12-03T03:38:36.605Z,12.67
2022-12-03T03:41:42.298Z,13.30
2022-12-03T03:44:44.615Z,13.97
2022-12-03T03:47:46.829Z,11.77
2022-12-03T03:50:51.085Z,12.47
2022-12-03T03:53:53.553Z,12.57
2022-12-03T03:56:55.816Z,13.10
2022-12-03T03:59:59.320Z,11.17
2022-12-03T04:03:01.390Z,11.13
2022-12-03T04:06:03.543Z,12.07
2022-12-03T04:09:05.585Z,13.67
2022-12-03T04:12:26.621Z,12.53
2022-12-03T04:15:28.998Z,15.03
2022-12-03T04:18:45.973Z,11.80
2022-12-03T04:22:06.220Z,14.20
2022-12-03T04:25:28.954Z,16.37
2022-12-03T04:28:49.326Z,13.23
2022-12-03T04:32:09.840Z,14.60
2022-12-03T04:35:30.644Z,13.00
2022-12-03T04:38:32.818Z,12.50
2022-12-03T04:41:34.939Z,12.23
2022-12-03T04:44:37.099Z,12.47
2022-12-03T04:47:40.101Z,12.50
2022-12-03T04:50:42.369Z,12.07
2022-12-03T04:53:46.418Z,11.70
2022-12-03T04:56:48.616Z,11.37
2022-12-03T04:59:50.704Z,10.70
2022-12-03T05:02:52.870Z,11.43
2022-12-03T05:05:55.017Z,12.80
2022-12-03T05:08:57.026Z,14.23
2022-12-03T05:11:59.348Z,13.70
2022-12-03T05:15:01.451Z,11.27
2022-12-03T05:18:03.527Z,11.93
2022-12-03T05:21:06.360Z,14.43
2022-12-03T05:24:08.541Z,12.13
2022-12-03T05:27:10.618Z,11.60
2022-12-03T05:30:12.947Z,13.43
2022-12-03T05:33:15.067Z,13.30
2022-12-03T05:36:17.173Z,15.03
2022-12-03T05:39:19.279Z,14.27
2022-12-03T05:42:39.714Z,12.37
2022-12-03T05:45:43.217Z,15.50
2022-12-03T05:48:45.382Z,10.80
2022-12-03T05:51:47.432Z,14.40
2022-12-03T05:54:49.643Z,14.63
2022-12-03T05:57:51.963Z,14.80
2022-12-03T06:00:54.070Z,11.73
2022-12-03T06:03:56.097Z,11.20
2022-12-03T06:06:58.166Z,14.13
2022-12-03T06:10:00.235Z,13.67
2022-12-03T06:13:03.722Z,14.70
2022-12-03T06:16:06.187Z,14.53
2022-12-03T06:19:08.244Z,12.13
2022-12-03T06:22:10.251Z,12.43
2022-12-03T06:25:13.627Z,13.80
2022-12-03T06:28:15.716Z,12.70
2022-12-03T06:31:17.972Z,13.30
2022-12-03T06:34:20.013Z,15.30
2022-12-03T06:37:22.082Z,11.90
2022-12-03T06:40:25.300Z,14.93
2022-12-03T06:43:28.151Z,14.37
2022-12-03T06:46:30.479Z,15.53
2022-12-03T06:49:32.622Z,14.60
2022-12-03T06:52:35.242Z,14.97
2022-12-03T06:55:37.270Z,16.30
2022-12-03T06:58:39.308Z,14.70
2022-12-03T07:01:41.485Z,16.80
2022-12-03T07:04:46.373Z,15.30
2022-12-03T07:07:52.315Z,14.37
2022-12-03T07:10:55.084Z,14.10
2022-12-03T07:14:05.146Z,13.83
2022-12-03T07:17:08.064Z,13.03
2022-12-03T07:20:10.666Z,16.23
2022-12-03T07:23:12.827Z,13.57
2022-12-03T07:26:14.886Z,15.03
2022-12-03T07:29:16.985Z,13.63
2022-12-03T07:32:19.056Z,15.43
2022-12-03T07:35:22.994Z,14.27
2022-12-03T07:38:26.087Z,13.83
2022-12-03T07:41:28.108Z,11.47
2022-12-03T07:44:32.299Z,15.17
2022-12-03T07:47:34.398Z,14.40
2022-12-03T07:50:36.463Z,14.97
2022-12-03T07:53:38.772Z,12.93
2022-12-03T07:56:40.864Z,15.83
2022-12-03T07:59:42.906Z,12.17
2022-12-03T08:02:45.127Z,16.87
2022-12-03T08:05:47.237Z,16.13
2022-12-03T08:08:49.329Z,19.50
2022-12-03T08:11:51.400Z,19.37
2022-12-03T08:14:53.535Z,19.93
2022-12-03T08:18:00.602Z,19.57
2022-12-03T08:21:10.022Z,17.90
2022-12-03T08:24:16.548Z,20.13
2022-12-03T08:27:19.918Z,19.53
2022-12-03T08:30:21.972Z,19.33
2022-12-03T08:33:35.641Z,19.43
2022-12-03T08:36:37.656Z,16.27
2022-12-03T08:39:47.091Z,19.43
2022-12-03T08:42:50.233Z,19.03
2022-12-03T08:45:54.186Z,20.43
2022-12-03T08:48:56.332Z,21.20
2022-12-03T08:52:01.405Z,22.40
2022-12-03T08:55:33.727Z,22.50
2022-12-03T08:58:46.798Z,20.50
2022-12-03T09:01:50.449Z,19.40
2022-12-03T09:04:54.946Z,20.57
2022-12-03T09:07:57.231Z,21.77
2022-12-03T09:10:59.320Z,21.67
2022-12-03T09:14:01.425Z,21.87
2022-12-03T09:17:03.892Z,21.87
2022-12-03T09:20:06.953Z,22.10
2022-12-03T09:23:09.011Z,21.00
2022-12-03T09:26:11.504Z,23.70
2022-12-03T09:29:13.708Z,20.60
2022-12-03T09:32:18.538Z,23.20
2022-12-03T09:35:21.116Z,21.70
2022-12-03T09:38:41.844Z,23.67
2022-12-03T09:41:46.921Z,22.40
2022-12-03T09:44:48.920Z,23.40
2022-12-03T09:47:51.184Z,21.03
2022-12-03T09:50:53.288Z,21.93
2022-12-03T09:53:55.439Z,22.03
2022-12-03T09:57:00.755Z,25.30
2022-12-03T10:00:03.137Z,22.43
2022-12-03T10:03:18.283Z,21.33
2022-12-03T10:06:23.127Z,21.07
2022-12-03T10:09:28.490Z,20.40
2022-12-03T10:12:30.804Z,20.90
2022-12-03T10:15:33.136Z,23.20
2022-12-03T10:18:41.214Z,22.07
2022-12-03T10:21:44.395Z,22.43
2022-12-03T10:24:46.466Z,21.53
2022-12-03T10:28:01.924Z,22.10
2022-12-03T10:31:08.339Z,21.70
2022-12-03T10:34:11.791Z,20.03
2022-12-03T10:37:17.666Z,22.97
2022-12-03T10:40:25.020Z,21.57
2022-12-03T10:43:28.567Z,21.03
2022-12-03T10:46:34.339Z,19.23
2022-12-03T10:49:37.120Z,21.30
2022-12-03T10:52:39.600Z,23.00
2022-12-03T10:55:51.996Z,26.63
2022-12-03T10:58:55.529Z,25.90
2022-12-03T11:01:58.069Z,22.70
2022-12-03T11:05:00.403Z,23.03
2022-12-03T11:08:04.111Z,19.13
2022-12-03T11:11:08.413Z,22.73
2022-12-03T11:14:11.722Z,23.10
2022-12-03T11:17:13.795Z,19.90
2022-12-03T11:20:24.590Z,21.50
2022-12-03T11:23:44.919Z,22.00
2022-12-03T11:26:46.879Z,24.50
2022-12-03T11:29:52.529Z,24.73
2022-12-03T11:32:57.720Z,25.77
2022-12-03T11:36:06.155Z,22.43
2022-12-03T11:39:08.771Z,22.90
2022-12-03T11:42:25.979Z,24.73
2022-12-03T11:45:36.856Z,22.33
2022-12-03T11:48:45.612Z,24.27
2022-12-03T11:51:47.826Z,20.93
2022-12-03T11:54:54.089Z,20.03
2022-12-03T11:58:01.822Z,21.30
2022-12-03T12:01:07.947Z,23.33
2022-12-03T12:04:30.634Z,20.17
2022-12-03T12:07:36.903Z,20.10
2022-12-03T12:10:47.343Z,19.07
2022-12-03T12:13:52.784Z,20.87
2022-12-03T12:16:55.563Z,19.90
2022-12-03T12:20:34.754Z,17.70
2022-12-03T12:23:36.828Z,17.47
2022-12-03T12:26:38.838Z,18.60
2022-12-03T12:29:42.782Z,16.57
2022-12-03T12:32:50.736Z,16.60
2022-12-03T12:35:53.382Z,18.97
2022-12-03T12:38:56.410Z,18.07
2022-12-03T12:42:08.488Z,18.33
2022-12-03T12:45:25.220Z,15.70
2022-12-03T12:48:31.287Z,18.23
2022-12-03T12:51:33.561Z,17.00
2022-12-03T12:54:38.153Z,17.23
2022-12-03T12:57:40.238Z,20.23
2022-12-03T13:00:42.822Z,16.90
2022-12-03T13:03:44.874Z,17.80
2022-12-03T13:06:53.366Z,17.60
2022-12-03T13:09:57.279Z,16.77
2022-12-03T13:13:13.050Z,17.03
2022-12-03T13:16:23.531Z,18.40
2022-12-03T13:19:31.373Z,18.67
2022-12-03T13:22:33.951Z,17.80
2022-12-03T13:25:59.381Z,18.60
2022-12-03T13:29:25.522Z,18.10
2022-12-03T13:32:34.271Z,16.50
2022-12-03T13:35:36.624Z,17.70
2022-12-03T13:38:38.711Z,16.40
2022-12-03T13:42:00.772Z,18.40
2022-12-03T13:45:03.905Z,18.87
2022-12-03T13:48:34.935Z,19.00
2022-12-03T13:51:37.024Z,16.40
2022-12-03T13:54:40.207Z,18.87
2022-12-03T13:57:42.438Z,20.47
2022-12-03T14:00:44.671Z,21.77
2022-12-03T14:03:46.828Z,19.60
2022-12-03T14:06:49.035Z,22.77
2022-12-03T14:09:51.365Z,29.60
2022-12-03T14:12:53.808Z,27.83
2022-12-03T14:15:55.901Z,28.77
2022-12-03T14:18:58.055Z,26.30
2022-12-03T14:22:00.543Z,29.47
2022-12-03T14:25:02.687Z,29.93
2022-12-03T14:28:08.932Z,34.60
2022-12-03T14:31:11.121Z,33.83
2022-12-03T14:34:13.437Z,30.47
2022-12-03T14:37:15.628Z,31.70
2022-12-03T14:40:21.465Z,40.83
2022-12-03T14:43:23.958Z,38.40
2022-12-03T14:46:26.095Z,43.90
2022-12-03T14:49:29.148Z,48.43
2022-12-03T14:52:31.307Z,43.77
2022-12-03T14:55:33.394Z,48.03
2022-12-03T14:58:35.568Z,45.07
2022-12-03T15:01:37.860Z,45.83
2022-12-03T15:04:41.410Z,50.77
2022-12-03T15:07:44.680Z,50.33
2022-12-03T15:10:48.274Z,49.57
2022-12-03T15:13:50.658Z,46.20
2022-12-03T15:16:52.836Z,45.97
2022-12-03T15:19:55.552Z,54.07
2022-12-03T15:22:58.142Z,49.77
2022-12-03T15:26:00.283Z,51.00
2022-12-03T15:29:02.445Z,50.80
2022-12-03T15:32:05.013Z,50.30
2022-12-03T15:35:07.827Z,51.33
2022-12-03T15:38:10.219Z,55.87
2022-12-03T15:41:22.057Z,57.77
2022-12-03T15:44:24.373Z,67.20
2022-12-03T15:47:26.779Z,56.13
2022-12-03T15:50:29.574Z,58.07
2022-12-03T15:53:32.093Z,55.07
2022-12-03T15:56:37.775Z,53.90
2022-12-03T15:59:40.003Z,47.73
2022-12-03T16:02:47.528Z,55.13
2022-12-03T16:05:54.205Z,53.90
2022-12-03T16:08:56.918Z,55.83
2022-12-03T16:11:59.193Z,52.90
2022-12-03T16:15:01.558Z,59.03
2022-12-03T16:18:03.893Z,53.03
2022-12-03T16:21:06.219Z,56.37
2022-12-03T16:24:09.130Z,53.77
2022-12-03T16:27:11.399Z,64.50
2022-12-03T16:30:14.212Z,57.30
2022-12-03T16:33:16.606Z,53.43
2022-12-03T16:36:19.114Z,55.97
2022-12-03T16:39:21.914Z,57.17
2022-12-03T16:42:24.366Z,52.77
2022-12-03T16:45:29.761Z,53.00
2022-12-03T16:48:32.848Z,53.83
2022-12-03T16:51:35.715Z,52.80
2022-12-03T16:54:38.787Z,50.10
2022-12-03T16:57:41.056Z,57.70
2022-12-03T17:00:43.602Z,62.27
2022-12-03T17:03:47.414Z,58.27
2022-12-03T17:06:49.676Z,54.33
2022-12-03T17:09:52.205Z,54.07
2022-12-03T17:13:10.009Z,56.57
2022-12-03T17:16:12.662Z,64.97
2022-12-03T17:19:15.410Z,55.57
2022-12-03T17:22:20.799Z,54.30
2022-12-03T17:25:24.010Z,56.57
2022-12-03T17:28:29.617Z,55.27
2022-12-03T17:31:36.987Z,61.87
2022-12-03T17:34:42.816Z,58.43
2022-12-03T17:37:45.350Z,57.30
2022-12-03T17:40:48.009Z,57.80
2022-12-03T17:43:50.840Z,57.87
2022-12-03T17:46:53.401Z,52.47
2022-12-03T17:49:56.511Z,54.37
2022-12-03T17:52:59.497Z,51.83
2022-12-03T17:56:01.722Z,53.67
2022-12-03T17:59:04.008Z,50.70
2022-12-03T18:02:07.675Z,56.73
2022-12-03T18:05:10.346Z,52.83
2022-12-03T18:08:12.856Z,55.47
2022-12-03T18:11:15.355Z,53.17
2022-12-03T18:14:17.954Z,50.83
2022-12-03T18:17:20.499Z,52.17
2022-12-03T18:20:24.173Z,51.60
2022-12-03T18:23:30.404Z,47.13
2022-12-03T18:26:38.149Z,47.90
2022-12-03T18:29:42.649Z,47.07
2022-12-03T18:32:45.314Z,47.57
2022-12-03T18:35:48.074Z,50.77
2022-12-03T18:38:53.315Z,53.33
2022-12-03T18:41:56.346Z,55.83
2022-12-03T18:44:59.786Z,50.67
2022-12-03T18:48:03.647Z,58.03
2022-12-03T18:51:22.238Z,49.03
2022-12-03T18:54:24.821Z,59.10
2022-12-03T18:57:27.477Z,50.57
2022-12-03T19:00:30.248Z,46.43
2022-12-03T19:03:33.694Z,51.97
2022-12-03T19:06:36.884Z,51.33
2022-12-03T19:09:41.031Z,44.90
2022-12-03T19:12:44.488Z,54.70
2022-12-03T19:15:49.951Z,60.90
2022-12-03T19:18:55.411Z,48.53
2022-12-03T19:21:59.268Z,53.50
2022-12-03T19:25:02.896Z,68.20
2022-12-03T19:28:06.393Z,65.60
2022-12-03T19:31:13.295Z,48.80
2022-12-03T19:34:18.351Z,64.17
2022-12-03T19:37:21.396Z,53.20
2022-12-03T19:40:25.566Z,63.87
2022-12-03T19:43:29.424Z,55.70
2022-12-03T19:46:32.598Z,59.50
2022-12-03T19:49:35.650Z,59.10
2022-12-03T19:52:38.940Z,67.17
2022-12-03T19:55:43.322Z,60.87
2022-12-03T19:58:47.383Z,63.20
2022-12-03T20:01:51.793Z,60.33
2022-12-03T20:04:54.783Z,56.10
2022-12-03T20:07:59.173Z,62.23
2022-12-03T20:11:17.526Z,62.60
2022-12-03T20:14:21.196Z,60.00
2022-12-03T20:17:23.996Z,62.23
2022-12-03T20:20:27.260Z,54.00
2022-12-03T20:23:33.356Z,52.13
2022-12-03T20:26:36.645Z,51.77
2022-12-03T20:29:41.730Z,50.40
2022-12-03T20:32:45.621Z,47.83
2022-12-03T20:35:54.401Z,43.90
2022-12-03T20:38:59.371Z,52.20
2022-12-03T20:42:02.094Z,48.53
2022-12-03T20:45:06.347Z,47.97
2022-12-03T20:48:10.300Z,51.53
2022-12-03T20:51:16.872Z,53.07
2022-12-03T20:54:19.958Z,49.87
2022-12-03T20:57:23.161Z,50.53
2022-12-03T21:00:26.225Z,52.43
2022-12-03T21:03:29.067Z,58.23
2022-12-03T21:06:34.796Z,46.40
2022-12-03T21:09:39.589Z,49.17
2022-12-03T21:12:42.367Z,47.27
2022-12-03T21:15:45.804Z,42.50
2022-12-03T21:18:48.601Z,48.37
2022-12-03T21:21:51.183Z,43.77
2022-12-03T21:24:53.821Z,55.87
2022-12-03T21:27:56.447Z,47.27
2022-12-03T21:31:05.601Z,51.63
2022-12-03T21:34:08.854Z,47.93
2022-12-03T21:37:11.519Z,52.97
2022-12-03T21:40:13.898Z,46.23
2022-12-03T21:43:16.158Z,45.77
2022-12-03T21:47:11.018Z,46.37
2022-12-03T21:49:42.739Z,52.33
2022-12-03T21:52:45.530Z,46.43
2022-12-03T21:55:47.594Z,59.13
2022-12-03T21:58:50.070Z,56.97
2022-12-03T22:01:52.357Z,55.80
2022-12-03T22:04:54.971Z,62.77
2022-12-03T22:07:57.457Z,58.13
2022-12-03T22:11:03.724Z,55.40
2022-12-03T22:14:07.101Z,57.90
2022-12-03T22:17:09.256Z,59.20
2022-12-03T22:20:11.918Z,56.33
2022-12-03T22:23:15.266Z,55.47
2022-12-03T22:26:19.257Z,57.47
2022-12-03T22:29:21.391Z,50.07
2022-12-03T22:32:24.089Z,50.30
2022-12-03T22:35:26.199Z,55.07
2022-12-03T22:38:30.149Z,61.10
2022-12-03T22:41:32.248Z,53.43
2022-12-03T22:44:34.261Z,56.40
2022-12-03T22:47:36.288Z,56.63
2022-12-03T22:50:45.233Z,65.40
2022-12-03T22:53:48.644Z,56.50
2022-12-03T22:56:50.762Z,57.23
2022-12-03T22:59:53.198Z,60.10
2022-12-03T23:02:55.688Z,62.83
2022-12-03T23:05:58.112Z,68.23
2022-12-03T23:09:00.496Z,60.17
2022-12-03T23:12:02.603Z,51.77
2022-12-03T23:15:05.335Z,60.80
2022-12-03T23:18:07.452Z,53.03
2022-12-03T23:21:10.511Z,50.13
2022-12-03T23:24:12.573Z,51.73
2022-12-03T23:27:14.700Z,53.27
2022-12-03T23:30:17.390Z,46.20
2022-12-03T23:33:19.920Z,48.60
2022-12-03T23:36:24.106Z,49.83
2022-12-03T23:39:26.120Z,53.57
2022-12-03T23:42:28.294Z,45.80
2022-12-03T23:45:30.380Z,46.90
2022-12-03T23:48:32.880Z,42.40
2022-12-03T23:51:35.092Z,44.57
2022-12-03T23:54:38.193Z,43.10
2022-12-03T23:57:40.249Z,48.80
